Impacts TAF Board
For situational awareness. Not to be used for flight planning purposes.
IDs:

KIAD - Washington/Dulles In, VA, US

Issued at 2320 UTC 18 Feb 2019
Updated at 0252 UTC 19 Feb 2019
Potential Impact None Slight Moderate High
Time<<20/03Z 20/04Z 20/05Z 20/06Z 20/07Z 20/08Z 20/09Z 20/10Z 20/11Z 20/12Z 20/13Z 20/14Z 20/15Z
Type PRVL PRVL PRVL
VIS >6 >6 >6
CIG 150 150 150
Cover BKN BKN BKN
FltCat VFR VFR VFR
WX -- -- --
WDir VRB VRB VRB
WSpd 3 3 3
WGst -- -- --
Raw TAF
KIAD 182320Z 1900/2006 30014G23KT P6SM OVC040
  FM190300 32008KT P6SM SCT040 BKN250
  FM190900 33007KT P6SM FEW040 FEW250
  FM200000 VRB03KT P6SM BKN150


METAR Board
Radar Display
Forecast Discussion
For situational awareness. Not to be used for flight planning purposes.